sensor_id;sensor_type;location;lat;lon;timestamp;P1;durP1;ratioP1;P2;durP2;ratioP2
6131;SDS011;3097;42.692;23.278;2022-08-30T00:00:13;28.80;;;19.23;;
6131;SDS011;3097;42.692;23.278;2022-08-30T00:03:00;24.20;;;18.63;;
6131;SDS011;3097;42.692;23.278;2022-08-30T00:05:28;21.90;;;17.93;;
6131;SDS011;3097;42.692;23.278;2022-08-30T00:07:54;24.17;;;17.10;;
6131;SDS011;3097;42.692;23.278;2022-08-30T00:10:19;23.37;;;17.53;;
6131;SDS011;3097;42.692;23.278;2022-08-30T00:12:45;19.83;;;16.30;;
6131;SDS011;3097;42.692;23.278;2022-08-30T00:15:13;20.00;;;16.60;;
6131;SDS011;3097;42.692;23.278;2022-08-30T00:17:39;19.47;;;15.10;;
6131;SDS011;3097;42.692;23.278;2022-08-30T00:20:07;20.03;;;15.43;;
6131;SDS011;3097;42.692;23.278;2022-08-30T00:22:35;23.17;;;15.57;;
6131;SDS011;3097;42.692;23.278;2022-08-30T00:25:01;17.80;;;13.83;;
6131;SDS011;3097;42.692;23.278;2022-08-30T00:27:27;17.20;;;14.87;;
6131;SDS011;3097;42.692;23.278;2022-08-30T00:29:53;17.80;;;14.33;;
6131;SDS011;3097;42.692;23.278;2022-08-30T00:32:20;16.60;;;13.87;;
6131;SDS011;3097;42.692;23.278;2022-08-30T00:34:47;15.40;;;13.70;;
6131;SDS011;3097;42.692;23.278;2022-08-30T00:37:13;17.00;;;13.13;;
6131;SDS011;3097;42.692;23.278;2022-08-30T00:39:39;14.00;;;12.13;;
6131;SDS011;3097;42.692;23.278;2022-08-30T00:42:05;13.63;;;12.27;;
6131;SDS011;3097;42.692;23.278;2022-08-30T00:44:31;14.90;;;12.43;;
6131;SDS011;3097;42.692;23.278;2022-08-30T00:46:56;17.40;;;12.43;;
6131;SDS011;3097;42.692;23.278;2022-08-30T00:49:22;14.03;;;12.50;;
6131;SDS011;3097;42.692;23.278;2022-08-30T00:51:48;14.57;;;12.43;;
6131;SDS011;3097;42.692;23.278;2022-08-30T00:54:14;13.20;;;11.80;;
6131;SDS011;3097;42.692;23.278;2022-08-30T00:56:40;15.07;;;12.90;;
6131;SDS011;3097;42.692;23.278;2022-08-30T00:59:07;18.13;;;13.10;;
6131;SDS011;3097;42.692;23.278;2022-08-30T01:01:33;14.73;;;12.30;;
6131;SDS011;3097;42.692;23.278;2022-08-30T01:04:00;16.50;;;12.83;;
6131;SDS011;3097;42.692;23.278;2022-08-30T01:06:26;14.10;;;12.60;;
6131;SDS011;3097;42.692;23.278;2022-08-30T01:08:52;13.17;;;11.77;;
6131;SDS011;3097;42.692;23.278;2022-08-30T01:11:19;14.30;;;11.73;;
6131;SDS011;3097;42.692;23.278;2022-08-30T01:13:46;14.57;;;11.17;;
6131;SDS011;3097;42.692;23.278;2022-08-30T01:16:14;13.93;;;12.10;;
6131;SDS011;3097;42.692;23.278;2022-08-30T01:18:40;15.10;;;12.97;;
6131;SDS011;3097;42.692;23.278;2022-08-30T01:23:45;16.37;;;13.57;;
6131;SDS011;3097;42.692;23.278;2022-08-30T01:26:13;18.77;;;13.20;;
6131;SDS011;3097;42.692;23.278;2022-08-30T01:28:41;16.53;;;13.97;;
6131;SDS011;3097;42.692;23.278;2022-08-30T01:31:10;14.87;;;13.27;;
6131;SDS011;3097;42.692;23.278;2022-08-30T01:33:36;20.17;;;13.83;;
6131;SDS011;3097;42.692;23.278;2022-08-30T01:36:04;17.53;;;13.87;;
6131;SDS011;3097;42.692;23.278;2022-08-30T01:38:34;20.40;;;14.90;;
6131;SDS011;3097;42.692;23.278;2022-08-30T01:41:06;17.90;;;14.33;;
6131;SDS011;3097;42.692;23.278;2022-08-30T01:43:37;19.17;;;14.97;;
6131;SDS011;3097;42.692;23.278;2022-08-30T01:46:03;17.80;;;14.63;;
6131;SDS011;3097;42.692;23.278;2022-08-30T01:48:29;20.40;;;14.87;;
6131;SDS011;3097;42.692;23.278;2022-08-30T01:50:55;18.80;;;14.20;;
6131;SDS011;3097;42.692;23.278;2022-08-30T01:53:21;18.70;;;14.00;;
6131;SDS011;3097;42.692;23.278;2022-08-30T01:55:47;17.03;;;13.73;;
6131;SDS011;3097;42.692;23.278;2022-08-30T01:58:12;17.30;;;14.13;;
6131;SDS011;3097;42.692;23.278;2022-08-30T02:00:38;16.03;;;13.57;;
6131;SDS011;3097;42.692;23.278;2022-08-30T02:03:04;16.57;;;13.60;;
6131;SDS011;3097;42.692;23.278;2022-08-30T02:05:30;15.77;;;13.33;;
6131;SDS011;3097;42.692;23.278;2022-08-30T02:07:56;17.73;;;13.60;;
6131;SDS011;3097;42.692;23.278;2022-08-30T02:10:22;17.57;;;14.20;;
6131;SDS011;3097;42.692;23.278;2022-08-30T02:12:48;16.30;;;13.73;;
6131;SDS011;3097;42.692;23.278;2022-08-30T02:15:14;15.47;;;13.33;;
6131;SDS011;3097;42.692;23.278;2022-08-30T02:17:40;16.67;;;12.70;;
6131;SDS011;3097;42.692;23.278;2022-08-30T02:20:06;16.47;;;13.20;;
6131;SDS011;3097;42.692;23.278;2022-08-30T02:22:32;15.03;;;12.80;;
6131;SDS011;3097;42.692;23.278;2022-08-30T02:24:58;17.33;;;13.40;;
6131;SDS011;3097;42.692;23.278;2022-08-30T02:27:23;15.47;;;13.23;;
6131;SDS011;3097;42.692;23.278;2022-08-30T02:29:50;16.00;;;13.67;;
6131;SDS011;3097;42.692;23.278;2022-08-30T02:32:16;15.43;;;12.20;;
6131;SDS011;3097;42.692;23.278;2022-08-30T02:34:41;16.70;;;13.07;;
6131;SDS011;3097;42.692;23.278;2022-08-30T02:37:08;14.83;;;13.07;;
6131;SDS011;3097;42.692;23.278;2022-08-30T02:39:34;15.20;;;12.87;;
6131;SDS011;3097;42.692;23.278;2022-08-30T02:42:00;16.47;;;13.07;;
6131;SDS011;3097;42.692;23.278;2022-08-30T02:44:26;15.53;;;13.40;;
6131;SDS011;3097;42.692;23.278;2022-08-30T02:46:51;15.50;;;12.40;;
6131;SDS011;3097;42.692;23.278;2022-08-30T02:49:17;14.30;;;12.23;;
6131;SDS011;3097;42.692;23.278;2022-08-30T02:51:42;15.33;;;11.67;;
6131;SDS011;3097;42.692;23.278;2022-08-30T02:54:08;13.43;;;11.90;;
6131;SDS011;3097;42.692;23.278;2022-08-30T02:56:33;15.03;;;12.00;;
6131;SDS011;3097;42.692;23.278;2022-08-30T02:58:59;15.83;;;12.20;;
6131;SDS011;3097;42.692;23.278;2022-08-30T03:01:24;14.80;;;12.17;;
6131;SDS011;3097;42.692;23.278;2022-08-30T03:03:50;15.93;;;12.23;;
6131;SDS011;3097;42.692;23.278;2022-08-30T03:06:16;13.87;;;11.93;;
6131;SDS011;3097;42.692;23.278;2022-08-30T03:08:42;15.73;;;12.60;;
6131;SDS011;3097;42.692;23.278;2022-08-30T03:11:08;15.37;;;12.40;;
6131;SDS011;3097;42.692;23.278;2022-08-30T03:13:34;12.70;;;11.30;;
6131;SDS011;3097;42.692;23.278;2022-08-30T03:16:00;13.10;;;11.27;;
6131;SDS011;3097;42.692;23.278;2022-08-30T03:18:26;12.10;;;10.47;;
6131;SDS011;3097;42.692;23.278;2022-08-30T03:20:52;13.07;;;10.80;;
6131;SDS011;3097;42.692;23.278;2022-08-30T03:23:17;12.33;;;11.00;;
6131;SDS011;3097;42.692;23.278;2022-08-30T03:25:43;12.83;;;11.00;;
6131;SDS011;3097;42.692;23.278;2022-08-30T03:28:09;14.90;;;11.93;;
6131;SDS011;3097;42.692;23.278;2022-08-30T03:30:34;13.17;;;11.00;;
6131;SDS011;3097;42.692;23.278;2022-08-30T03:33:00;13.90;;;11.80;;
6131;SDS011;3097;42.692;23.278;2022-08-30T03:35:26;12.47;;;10.13;;
6131;SDS011;3097;42.692;23.278;2022-08-30T03:37:52;12.00;;;10.63;;
6131;SDS011;3097;42.692;23.278;2022-08-30T03:40:19;13.37;;;11.37;;
6131;SDS011;3097;42.692;23.278;2022-08-30T03:42:46;14.47;;;12.33;;
6131;SDS011;3097;42.692;23.278;2022-08-30T03:45:14;14.50;;;11.97;;
6131;SDS011;3097;42.692;23.278;2022-08-30T03:47:41;13.17;;;11.63;;
6131;SDS011;3097;42.692;23.278;2022-08-30T03:50:07;15.00;;;11.13;;
6131;SDS011;3097;42.692;23.278;2022-08-30T03:52:36;13.57;;;10.90;;
6131;SDS011;3097;42.692;23.278;2022-08-30T03:55:01;13.20;;;11.23;;
6131;SDS011;3097;42.692;23.278;2022-08-30T03:57:27;12.30;;;11.10;;
6131;SDS011;3097;42.692;23.278;2022-08-30T03:59:53;12.33;;;10.67;;
6131;SDS011;3097;42.692;23.278;2022-08-30T04:02:21;15.67;;;11.73;;
6131;SDS011;3097;42.692;23.278;2022-08-30T04:04:47;12.83;;;11.33;;
6131;SDS011;3097;42.692;23.278;2022-08-30T04:07:13;12.67;;;11.17;;
6131;SDS011;3097;42.692;23.278;2022-08-30T04:09:40;12.77;;;11.37;;
6131;SDS011;3097;42.692;23.278;2022-08-30T04:12:05;15.60;;;11.73;;
6131;SDS011;3097;42.692;23.278;2022-08-30T04:14:31;14.30;;;11.90;;
6131;SDS011;3097;42.692;23.278;2022-08-30T04:16:57;13.67;;;11.40;;
6131;SDS011;3097;42.692;23.278;2022-08-30T04:19:23;14.03;;;11.90;;
6131;SDS011;3097;42.692;23.278;2022-08-30T04:21:48;15.07;;;11.77;;
6131;SDS011;3097;42.692;23.278;2022-08-30T04:24:14;16.57;;;11.93;;
6131;SDS011;3097;42.692;23.278;2022-08-30T04:26:40;13.57;;;11.77;;
6131;SDS011;3097;42.692;23.278;2022-08-30T04:29:05;13.53;;;11.80;;
6131;SDS011;3097;42.692;23.278;2022-08-30T04:31:33;14.73;;;11.40;;
6131;SDS011;3097;42.692;23.278;2022-08-30T04:33:59;15.03;;;12.20;;
6131;SDS011;3097;42.692;23.278;2022-08-30T04:36:24;14.17;;;12.10;;
6131;SDS011;3097;42.692;23.278;2022-08-30T04:38:50;15.53;;;12.30;;
6131;SDS011;3097;42.692;23.278;2022-08-30T04:41:16;13.40;;;11.17;;
6131;SDS011;3097;42.692;23.278;2022-08-30T04:43:44;16.70;;;12.50;;
6131;SDS011;3097;42.692;23.278;2022-08-30T04:46:11;16.40;;;12.90;;
6131;SDS011;3097;42.692;23.278;2022-08-30T04:48:38;13.47;;;11.70;;
6131;SDS011;3097;42.692;23.278;2022-08-30T04:51:04;19.63;;;12.10;;
6131;SDS011;3097;42.692;23.278;2022-08-30T04:53:32;16.37;;;13.17;;
6131;SDS011;3097;42.692;23.278;2022-08-30T04:55:58;14.43;;;12.70;;
6131;SDS011;3097;42.692;23.278;2022-08-30T04:58:24;15.90;;;13.30;;
6131;SDS011;3097;42.692;23.278;2022-08-30T05:00:49;18.57;;;13.07;;
6131;SDS011;3097;42.692;23.278;2022-08-30T05:03:15;15.67;;;13.07;;
6131;SDS011;3097;42.692;23.278;2022-08-30T05:05:45;15.00;;;12.23;;
6131;SDS011;3097;42.692;23.278;2022-08-30T05:08:13;17.80;;;12.77;;
6131;SDS011;3097;42.692;23.278;2022-08-30T05:10:43;20.77;;;12.50;;
6131;SDS011;3097;42.692;23.278;2022-08-30T05:13:11;15.13;;;12.90;;
6131;SDS011;3097;42.692;23.278;2022-08-30T05:15:37;16.67;;;13.57;;
6131;SDS011;3097;42.692;23.278;2022-08-30T05:18:04;16.00;;;12.87;;
6131;SDS011;3097;42.692;23.278;2022-08-30T05:20:32;16.67;;;12.60;;
6131;SDS011;3097;42.692;23.278;2022-08-30T05:22:58;18.13;;;12.53;;
6131;SDS011;3097;42.692;23.278;2022-08-30T05:25:24;15.73;;;12.77;;
6131;SDS011;3097;42.692;23.278;2022-08-30T05:27:52;15.90;;;13.07;;
6131;SDS011;3097;42.692;23.278;2022-08-30T05:30:18;15.83;;;12.93;;
6131;SDS011;3097;42.692;23.278;2022-08-30T05:32:44;16.03;;;13.00;;
6131;SDS011;3097;42.692;23.278;2022-08-30T05:35:09;16.07;;;13.13;;
6131;SDS011;3097;42.692;23.278;2022-08-30T05:37:36;16.27;;;13.30;;
6131;SDS011;3097;42.692;23.278;2022-08-30T05:40:03;15.50;;;12.73;;
6131;SDS011;3097;42.692;23.278;2022-08-30T05:42:30;15.93;;;12.97;;
6131;SDS011;3097;42.692;23.278;2022-08-30T05:44:57;17.17;;;12.60;;
6131;SDS011;3097;42.692;23.278;2022-08-30T05:47:22;15.00;;;13.17;;
6131;SDS011;3097;42.692;23.278;2022-08-30T05:49:47;15.37;;;12.83;;
6131;SDS011;3097;42.692;23.278;2022-08-30T05:52:13;17.30;;;13.50;;
6131;SDS011;3097;42.692;23.278;2022-08-30T05:54:42;15.87;;;13.83;;
6131;SDS011;3097;42.692;23.278;2022-08-30T05:57:08;17.30;;;13.50;;
6131;SDS011;3097;42.692;23.278;2022-08-30T05:59:34;17.47;;;13.33;;
6131;SDS011;3097;42.692;23.278;2022-08-30T06:01:59;16.77;;;13.30;;
6131;SDS011;3097;42.692;23.278;2022-08-30T06:04:25;15.50;;;13.53;;
6131;SDS011;3097;42.692;23.278;2022-08-30T06:06:50;16.27;;;13.40;;
6131;SDS011;3097;42.692;23.278;2022-08-30T06:09:16;16.40;;;13.80;;
6131;SDS011;3097;42.692;23.278;2022-08-30T06:11:43;20.87;;;14.43;;
6131;SDS011;3097;42.692;23.278;2022-08-30T06:14:09;24.73;;;15.00;;
6131;SDS011;3097;42.692;23.278;2022-08-30T06:16:36;20.17;;;14.27;;
6131;SDS011;3097;42.692;23.278;2022-08-30T06:19:03;18.10;;;14.83;;
6131;SDS011;3097;42.692;23.278;2022-08-30T06:21:31;18.07;;;14.57;;
6131;SDS011;3097;42.692;23.278;2022-08-30T06:23:58;18.07;;;13.93;;
6131;SDS011;3097;42.692;23.278;2022-08-30T06:26:25;20.00;;;14.80;;
6131;SDS011;3097;42.692;23.278;2022-08-30T06:28:51;18.60;;;14.37;;
6131;SDS011;3097;42.692;23.278;2022-08-30T06:31:17;19.83;;;14.57;;
6131;SDS011;3097;42.692;23.278;2022-08-30T06:33:44;18.47;;;15.10;;
6131;SDS011;3097;42.692;23.278;2022-08-30T06:36:11;17.53;;;14.37;;
6131;SDS011;3097;42.692;23.278;2022-08-30T06:38:40;18.63;;;13.70;;
6131;SDS011;3097;42.692;23.278;2022-08-30T06:41:07;19.27;;;14.73;;
6131;SDS011;3097;42.692;23.278;2022-08-30T06:43:37;18.23;;;13.53;;
6131;SDS011;3097;42.692;23.278;2022-08-30T06:46:04;15.53;;;12.90;;
6131;SDS011;3097;42.692;23.278;2022-08-30T06:48:30;20.27;;;13.80;;
6131;SDS011;3097;42.692;23.278;2022-08-30T06:50:56;16.27;;;13.63;;
6131;SDS011;3097;42.692;23.278;2022-08-30T06:53:21;18.53;;;13.90;;
6131;SDS011;3097;42.692;23.278;2022-08-30T06:55:56;15.07;;;13.13;;
6131;SDS011;3097;42.692;23.278;2022-08-30T06:58:25;17.23;;;13.13;;
6131;SDS011;3097;42.692;23.278;2022-08-30T07:00:51;20.17;;;14.80;;
6131;SDS011;3097;42.692;23.278;2022-08-30T07:03:16;21.57;;;16.40;;
6131;SDS011;3097;42.692;23.278;2022-08-30T07:05:42;17.93;;;14.43;;
6131;SDS011;3097;42.692;23.278;2022-08-30T07:08:07;16.07;;;13.70;;
6131;SDS011;3097;42.692;23.278;2022-08-30T07:10:37;18.17;;;14.37;;
6131;SDS011;3097;42.692;23.278;2022-08-30T07:13:03;19.30;;;15.30;;
6131;SDS011;3097;42.692;23.278;2022-08-30T07:15:29;18.23;;;14.57;;
6131;SDS011;3097;42.692;23.278;2022-08-30T07:17:54;24.33;;;14.87;;
6131;SDS011;3097;42.692;23.278;2022-08-30T07:20:38;19.73;;;15.43;;
6131;SDS011;3097;42.692;23.278;2022-08-30T07:23:04;21.80;;;15.40;;
6131;SDS011;3097;42.692;23.278;2022-08-30T07:25:29;17.87;;;14.37;;
6131;SDS011;3097;42.692;23.278;2022-08-30T07:27:55;18.90;;;14.63;;
6131;SDS011;3097;42.692;23.278;2022-08-30T07:30:21;18.33;;;14.30;;
6131;SDS011;3097;42.692;23.278;2022-08-30T07:32:46;18.33;;;14.37;;
6131;SDS011;3097;42.692;23.278;2022-08-30T07:35:13;18.37;;;14.53;;
6131;SDS011;3097;42.692;23.278;2022-08-30T07:37:38;18.10;;;14.83;;
6131;SDS011;3097;42.692;23.278;2022-08-30T07:40:03;16.60;;;13.67;;
6131;SDS011;3097;42.692;23.278;2022-08-30T07:42:29;16.43;;;13.57;;
6131;SDS011;3097;42.692;23.278;2022-08-30T07:44:54;17.70;;;13.53;;
6131;SDS011;3097;42.692;23.278;2022-08-30T07:47:20;18.33;;;13.67;;
6131;SDS011;3097;42.692;23.278;2022-08-30T07:49:45;15.17;;;13.00;;
6131;SDS011;3097;42.692;23.278;2022-08-30T07:52:11;16.83;;;14.07;;
6131;SDS011;3097;42.692;23.278;2022-08-30T07:54:36;18.13;;;13.50;;
6131;SDS011;3097;42.692;23.278;2022-08-30T07:57:02;17.53;;;13.40;;
6131;SDS011;3097;42.692;23.278;2022-08-30T07:59:28;15.67;;;13.30;;
6131;SDS011;3097;42.692;23.278;2022-08-30T08:01:54;15.73;;;13.20;;
6131;SDS011;3097;42.692;23.278;2022-08-30T08:04:19;13.83;;;12.43;;
6131;SDS011;3097;42.692;23.278;2022-08-30T08:06:46;16.53;;;13.43;;
6131;SDS011;3097;42.692;23.278;2022-08-30T08:09:11;17.90;;;13.33;;
6131;SDS011;3097;42.692;23.278;2022-08-30T08:11:37;19.87;;;15.57;;
6131;SDS011;3097;42.692;23.278;2022-08-30T08:14:04;17.80;;;13.80;;
6131;SDS011;3097;42.692;23.278;2022-08-30T08:16:30;22.53;;;15.57;;
6131;SDS011;3097;42.692;23.278;2022-08-30T08:18:57;18.00;;;14.43;;
6131;SDS011;3097;42.692;23.278;2022-08-30T08:21:23;18.17;;;15.13;;
6131;SDS011;3097;42.692;23.278;2022-08-30T08:23:50;17.30;;;14.83;;
6131;SDS011;3097;42.692;23.278;2022-08-30T08:26:16;18.77;;;15.03;;
6131;SDS011;3097;42.692;23.278;2022-08-30T08:28:42;19.67;;;15.80;;
6131;SDS011;3097;42.692;23.278;2022-08-30T08:31:19;20.37;;;14.93;;
6131;SDS011;3097;42.692;23.278;2022-08-30T08:33:49;19.30;;;14.90;;
6131;SDS011;3097;42.692;23.278;2022-08-30T08:36:14;17.07;;;15.00;;
6131;SDS011;3097;42.692;23.278;2022-08-30T08:38:40;15.97;;;14.17;;
6131;SDS011;3097;42.692;23.278;2022-08-30T08:44:14;17.57;;;13.67;;
6131;SDS011;3097;42.692;23.278;2022-08-30T08:47:00;14.87;;;13.37;;
6131;SDS011;3097;42.692;23.278;2022-08-30T08:49:30;17.97;;;13.87;;
6131;SDS011;3097;42.692;23.278;2022-08-30T08:51:59;15.40;;;13.80;;
6131;SDS011;3097;42.692;23.278;2022-08-30T08:54:59;14.53;;;12.50;;
6131;SDS011;3097;42.692;23.278;2022-08-30T08:57:32;15.50;;;13.10;;
6131;SDS011;3097;42.692;23.278;2022-08-30T08:59:59;14.67;;;13.13;;
6131;SDS011;3097;42.692;23.278;2022-08-30T09:02:27;14.57;;;13.07;;
6131;SDS011;3097;42.692;23.278;2022-08-30T09:04:59;19.97;;;16.00;;
6131;SDS011;3097;42.692;23.278;2022-08-30T09:07:29;17.50;;;14.97;;
6131;SDS011;3097;42.692;23.278;2022-08-30T09:09:59;19.30;;;15.83;;
6131;SDS011;3097;42.692;23.278;2022-08-30T09:12:25;18.63;;;15.60;;
6131;SDS011;3097;42.692;23.278;2022-08-30T09:14:54;17.13;;;14.20;;
6131;SDS011;3097;42.692;23.278;2022-08-30T09:17:47;20.40;;;15.33;;
6131;SDS011;3097;42.692;23.278;2022-08-30T09:20:26;17.67;;;14.53;;
6131;SDS011;3097;42.692;23.278;2022-08-30T09:25:50;21.13;;;15.37;;
6131;SDS011;3097;42.692;23.278;2022-08-30T09:28:20;18.70;;;14.93;;
6131;SDS011;3097;42.692;23.278;2022-08-30T09:31:05;19.37;;;15.50;;
6131;SDS011;3097;42.692;23.278;2022-08-30T09:33:31;18.93;;;15.23;;
6131;SDS011;3097;42.692;23.278;2022-08-30T09:35:58;17.83;;;14.60;;
6131;SDS011;3097;42.692;23.278;2022-08-30T09:38:37;18.83;;;14.53;;
6131;SDS011;3097;42.692;23.278;2022-08-30T09:46:46;16.80;;;13.77;;
6131;SDS011;3097;42.692;23.278;2022-08-30T09:49:27;14.77;;;13.17;;
6131;SDS011;3097;42.692;23.278;2022-08-30T09:54:36;17.13;;;13.57;;
6131;SDS011;3097;42.692;23.278;2022-08-30T10:08:03;18.40;;;14.10;;
6131;SDS011;3097;42.692;23.278;2022-08-30T10:10:36;16.90;;;14.03;;
6131;SDS011;3097;42.692;23.278;2022-08-30T10:13:20;17.10;;;14.47;;
6131;SDS011;3097;42.692;23.278;2022-08-30T10:15:57;19.50;;;14.40;;
6131;SDS011;3097;42.692;23.278;2022-08-30T10:19:17;16.90;;;13.33;;
6131;SDS011;3097;42.692;23.278;2022-08-30T10:24:06;18.63;;;14.77;;
6131;SDS011;3097;42.692;23.278;2022-08-30T10:26:36;16.33;;;13.57;;
6131;SDS011;3097;42.692;23.278;2022-08-30T10:29:08;19.17;;;14.67;;
6131;SDS011;3097;42.692;23.278;2022-08-30T10:34:23;19.03;;;14.97;;
6131;SDS011;3097;42.692;23.278;2022-08-30T10:37:03;16.97;;;14.57;;
6131;SDS011;3097;42.692;23.278;2022-08-30T10:39:39;18.73;;;14.73;;
6131;SDS011;3097;42.692;23.278;2022-08-30T10:42:17;18.17;;;15.00;;
6131;SDS011;3097;42.692;23.278;2022-08-30T10:44:57;19.13;;;13.73;;
6131;SDS011;3097;42.692;23.278;2022-08-30T10:55:22;17.57;;;13.63;;
6131;SDS011;3097;42.692;23.278;2022-08-30T10:57:50;16.13;;;14.07;;
6131;SDS011;3097;42.692;23.278;2022-08-30T11:06:13;16.43;;;14.17;;
6131;SDS011;3097;42.692;23.278;2022-08-30T11:14:02;17.83;;;14.27;;
6131;SDS011;3097;42.692;23.278;2022-08-30T11:16:44;17.20;;;14.00;;
6131;SDS011;3097;42.692;23.278;2022-08-30T11:21:50;16.37;;;13.07;;
6131;SDS011;3097;42.692;23.278;2022-08-30T11:24:18;15.33;;;13.73;;
6131;SDS011;3097;42.692;23.278;2022-08-30T11:40:08;16.33;;;13.70;;
6131;SDS011;3097;42.692;23.278;2022-08-30T11:42:53;15.43;;;13.70;;
6131;SDS011;3097;42.692;23.278;2022-08-30T11:47:49;15.33;;;13.83;;
6131;SDS011;3097;42.692;23.278;2022-08-30T11:59:25;15.50;;;13.97;;
6131;SDS011;3097;42.692;23.278;2022-08-30T12:05:07;13.27;;;11.87;;
6131;SDS011;3097;42.692;23.278;2022-08-30T12:10:38;12.50;;;11.30;;
6131;SDS011;3097;42.692;23.278;2022-08-30T12:13:06;13.77;;;12.40;;
6131;SDS011;3097;42.692;23.278;2022-08-30T12:18:21;12.20;;;10.87;;
6131;SDS011;3097;42.692;23.278;2022-08-30T12:20:53;12.03;;;10.87;;
6131;SDS011;3097;42.692;23.278;2022-08-30T12:23:29;11.50;;;10.40;;
6131;SDS011;3097;42.692;23.278;2022-08-30T12:26:09;11.90;;;10.80;;
6131;SDS011;3097;42.692;23.278;2022-08-30T12:28:41;12.47;;;11.17;;
6131;SDS011;3097;42.692;23.278;2022-08-30T12:31:23;11.80;;;10.60;;
6131;SDS011;3097;42.692;23.278;2022-08-30T12:33:55;11.60;;;10.50;;
6131;SDS011;3097;42.692;23.278;2022-08-30T12:36:34;11.30;;;10.20;;
6131;SDS011;3097;42.692;23.278;2022-08-30T12:39:06;13.30;;;11.87;;
6131;SDS011;3097;42.692;23.278;2022-08-30T12:41:32;10.83;;;9.90;;
6131;SDS011;3097;42.692;23.278;2022-08-30T12:43:57;11.50;;;10.40;;
6131;SDS011;3097;42.692;23.278;2022-08-30T12:46:23;11.30;;;10.30;;
6131;SDS011;3097;42.692;23.278;2022-08-30T12:48:49;12.70;;;11.40;;
6131;SDS011;3097;42.692;23.278;2022-08-30T12:51:25;11.80;;;10.60;;
6131;SDS011;3097;42.692;23.278;2022-08-30T12:53:51;11.57;;;10.57;;
6131;SDS011;3097;42.692;23.278;2022-08-30T12:56:17;12.30;;;10.93;;
6131;SDS011;3097;42.692;23.278;2022-08-30T12:58:44;11.67;;;10.43;;
6131;SDS011;3097;42.692;23.278;2022-08-30T13:01:28;11.70;;;10.47;;
6131;SDS011;3097;42.692;23.278;2022-08-30T13:06:40;13.57;;;12.13;;
6131;SDS011;3097;42.692;23.278;2022-08-30T13:09:08;12.67;;;11.37;;
6131;SDS011;3097;42.692;23.278;2022-08-30T13:11:35;12.47;;;11.37;;
6131;SDS011;3097;42.692;23.278;2022-08-30T13:22:30;13.53;;;11.50;;
6131;SDS011;3097;42.692;23.278;2022-08-30T13:24:56;12.40;;;11.23;;
6131;SDS011;3097;42.692;23.278;2022-08-30T13:27:22;12.80;;;11.47;;
6131;SDS011;3097;42.692;23.278;2022-08-30T13:29:49;12.70;;;11.40;;
6131;SDS011;3097;42.692;23.278;2022-08-30T13:32:14;12.47;;;11.30;;
6131;SDS011;3097;42.692;23.278;2022-08-30T13:34:41;12.17;;;10.97;;
6131;SDS011;3097;42.692;23.278;2022-08-30T13:37:07;12.50;;;11.20;;
6131;SDS011;3097;42.692;23.278;2022-08-30T13:39:37;12.70;;;11.50;;
6131;SDS011;3097;42.692;23.278;2022-08-30T13:42:02;12.63;;;11.37;;
6131;SDS011;3097;42.692;23.278;2022-08-30T13:44:28;12.53;;;11.33;;
6131;SDS011;3097;42.692;23.278;2022-08-30T13:46:53;15.73;;;11.87;;
6131;SDS011;3097;42.692;23.278;2022-08-30T13:49:23;12.03;;;10.77;;
6131;SDS011;3097;42.692;23.278;2022-08-30T13:51:53;12.80;;;11.37;;
6131;SDS011;3097;42.692;23.278;2022-08-30T13:54:19;15.07;;;11.70;;
6131;SDS011;3097;42.692;23.278;2022-08-30T13:56:50;13.60;;;11.10;;
6131;SDS011;3097;42.692;23.278;2022-08-30T13:59:17;13.63;;;11.53;;
6131;SDS011;3097;42.692;23.278;2022-08-30T14:01:44;13.40;;;12.20;;
6131;SDS011;3097;42.692;23.278;2022-08-30T14:04:10;13.60;;;12.30;;
6131;SDS011;3097;42.692;23.278;2022-08-30T14:06:36;13.30;;;12.00;;
6131;SDS011;3097;42.692;23.278;2022-08-30T14:09:02;12.47;;;11.27;;
6131;SDS011;3097;42.692;23.278;2022-08-30T14:11:30;12.33;;;11.13;;
6131;SDS011;3097;42.692;23.278;2022-08-30T14:13:55;13.23;;;11.90;;
6131;SDS011;3097;42.692;23.278;2022-08-30T14:16:21;13.40;;;12.03;;
6131;SDS011;3097;42.692;23.278;2022-08-30T14:18:46;13.47;;;12.17;;
6131;SDS011;3097;42.692;23.278;2022-08-30T14:21:12;14.03;;;12.33;;
6131;SDS011;3097;42.692;23.278;2022-08-30T14:23:38;12.63;;;11.43;;
6131;SDS011;3097;42.692;23.278;2022-08-30T14:26:04;15.40;;;12.10;;
6131;SDS011;3097;42.692;23.278;2022-08-30T14:28:42;13.03;;;11.60;;
6131;SDS011;3097;42.692;23.278;2022-08-30T14:31:09;14.60;;;11.27;;
6131;SDS011;3097;42.692;23.278;2022-08-30T14:33:35;14.07;;;12.67;;
6131;SDS011;3097;42.692;23.278;2022-08-30T14:36:00;14.37;;;11.77;;
6131;SDS011;3097;42.692;23.278;2022-08-30T14:38:26;14.77;;;11.80;;
6131;SDS011;3097;42.692;23.278;2022-08-30T14:40:51;17.03;;;13.17;;
6131;SDS011;3097;42.692;23.278;2022-08-30T14:43:17;16.20;;;13.03;;
6131;SDS011;3097;42.692;23.278;2022-08-30T14:45:42;13.83;;;12.33;;
6131;SDS011;3097;42.692;23.278;2022-08-30T14:48:08;12.90;;;11.60;;
6131;SDS011;3097;42.692;23.278;2022-08-30T14:50:36;12.80;;;11.40;;
6131;SDS011;3097;42.692;23.278;2022-08-30T14:53:02;12.63;;;11.07;;
6131;SDS011;3097;42.692;23.278;2022-08-30T14:55:30;13.50;;;12.30;;
6131;SDS011;3097;42.692;23.278;2022-08-30T14:57:56;14.53;;;11.73;;
6131;SDS011;3097;42.692;23.278;2022-08-30T15:00:22;13.40;;;11.97;;
6131;SDS011;3097;42.692;23.278;2022-08-30T15:02:48;13.73;;;12.23;;
6131;SDS011;3097;42.692;23.278;2022-08-30T15:05:14;17.70;;;14.93;;
6131;SDS011;3097;42.692;23.278;2022-08-30T15:07:39;24.40;;;18.63;;
6131;SDS011;3097;42.692;23.278;2022-08-30T15:10:06;14.57;;;12.80;;
6131;SDS011;3097;42.692;23.278;2022-08-30T15:12:33;14.77;;;13.27;;
6131;SDS011;3097;42.692;23.278;2022-08-30T15:14:58;13.30;;;12.10;;
6131;SDS011;3097;42.692;23.278;2022-08-30T15:17:24;14.83;;;13.33;;
6131;SDS011;3097;42.692;23.278;2022-08-30T15:19:50;14.40;;;12.53;;
6131;SDS011;3097;42.692;23.278;2022-08-30T15:22:15;14.23;;;12.83;;
6131;SDS011;3097;42.692;23.278;2022-08-30T15:24:41;15.27;;;13.00;;
6131;SDS011;3097;42.692;23.278;2022-08-30T15:27:07;16.67;;;13.17;;
6131;SDS011;3097;42.692;23.278;2022-08-30T15:29:33;13.23;;;11.93;;
6131;SDS011;3097;42.692;23.278;2022-08-30T15:31:59;13.93;;;12.40;;
6131;SDS011;3097;42.692;23.278;2022-08-30T15:34:27;14.80;;;13.30;;
6131;SDS011;3097;42.692;23.278;2022-08-30T15:36:55;13.37;;;12.03;;
6131;SDS011;3097;42.692;23.278;2022-08-30T15:39:21;14.80;;;13.30;;
6131;SDS011;3097;42.692;23.278;2022-08-30T15:41:47;13.27;;;11.90;;
6131;SDS011;3097;42.692;23.278;2022-08-30T15:44:13;28.23;;;19.90;;
6131;SDS011;3097;42.692;23.278;2022-08-30T15:46:40;17.17;;;14.83;;
6131;SDS011;3097;42.692;23.278;2022-08-30T15:51:46;24.60;;;19.13;;
6131;SDS011;3097;42.692;23.278;2022-08-30T15:54:14;18.87;;;16.33;;
6131;SDS011;3097;42.692;23.278;2022-08-30T15:56:41;17.03;;;15.03;;
6131;SDS011;3097;42.692;23.278;2022-08-30T15:59:08;16.03;;;14.33;;
6131;SDS011;3097;42.692;23.278;2022-08-30T16:01:34;15.47;;;13.73;;
6131;SDS011;3097;42.692;23.278;2022-08-30T16:04:00;17.97;;;15.33;;
6131;SDS011;3097;42.692;23.278;2022-08-30T16:06:27;18.87;;;15.57;;
6131;SDS011;3097;42.692;23.278;2022-08-30T16:08:54;18.60;;;15.07;;
6131;SDS011;3097;42.692;23.278;2022-08-30T16:11:20;16.00;;;14.30;;
6131;SDS011;3097;42.692;23.278;2022-08-30T16:13:47;22.23;;;16.83;;
6131;SDS011;3097;42.692;23.278;2022-08-30T16:16:13;18.87;;;15.27;;
6131;SDS011;3097;42.692;23.278;2022-08-30T16:18:39;15.10;;;13.17;;